createdAt,value
2022-10-22T00:00:47.000Z,5043.0
2022-10-22T00:01:47.000Z,5009.0
2022-10-22T00:02:48.000Z,5811.0
2022-10-22T00:03:47.000Z,6436.0
2022-10-22T00:04:47.000Z,6405.0
2022-10-22T00:05:48.000Z,7020.0
2022-10-22T00:06:47.000Z,7855.0
2022-10-22T00:07:48.000Z,8720.0
2022-10-22T00:08:47.000Z,10213.0
2022-10-22T00:09:47.000Z,12236.0
2022-10-22T00:10:48.000Z,13019.0
2022-10-22T00:11:47.000Z,13547.0
2022-10-22T00:12:48.000Z,14886.0
2022-10-22T00:13:48.000Z,13349.0
2022-10-22T00:14:47.000Z,13008.0
2022-10-22T00:15:48.000Z,14735.0
2022-10-22T00:16:47.000Z,16000.0
2022-10-22T00:17:47.000Z,16000.0
2022-10-22T00:18:48.000Z,16000.0
2022-10-22T00:19:47.000Z,14468.0
2022-10-22T00:20:48.000Z,12900.0
2022-10-22T00:21:47.000Z,12133.0
2022-10-22T00:23:48.000Z,11670.0
2022-10-22T00:24:47.000Z,11608.0
2022-10-22T00:25:48.000Z,10295.0
2022-10-22T00:26:47.000Z,9830.0
2022-10-22T00:27:47.000Z,10167.0
2022-10-22T00:28:48.000Z,11393.0
2022-10-22T00:29:47.000Z,13842.0
2022-10-22T00:30:47.000Z,15531.0
2022-10-22T00:31:48.000Z,16000.0
2022-10-22T00:32:47.000Z,16000.0
2022-10-22T00:33:48.000Z,16000.0
2022-10-22T00:34:47.000Z,16000.0
2022-10-22T00:35:47.000Z,16000.0
2022-10-22T00:36:48.000Z,16000.0
2022-10-22T00:37:47.000Z,13749.0
2022-10-22T00:38:48.000Z,13192.0
2022-10-22T00:39:48.000Z,12728.0
2022-10-22T00:40:47.000Z,12084.0
2022-10-22T00:41:48.000Z,10136.0
2022-10-22T00:42:47.000Z,9123.0
2022-10-22T00:43:47.000Z,9457.0
2022-10-22T00:44:48.000Z,9274.0
2022-10-22T00:45:47.000Z,7068.0
2022-10-22T00:46:47.000Z,6736.0
2022-10-22T00:47:48.000Z,6168.0
2022-10-22T00:48:47.000Z,6083.0
2022-10-22T00:49:48.000Z,6429.0
2022-10-22T00:50:47.000Z,6697.0
2022-10-22T00:51:47.000Z,6744.0
2022-10-22T00:52:48.000Z,6537.0
2022-10-22T00:53:47.000Z,5359.0
2022-10-22T00:54:48.000Z,3697.0
2022-10-22T00:55:47.000Z,2904.0
2022-10-22T00:56:47.000Z,2399.0
2022-10-22T00:57:48.000Z,1800.0
2022-10-22T00:58:47.000Z,2277.0
2022-10-22T00:59:48.000Z,2876.0
2022-10-22T01:00:48.000Z,3536.0
2022-10-22T01:01:47.000Z,3917.0
2022-10-22T01:02:48.000Z,4164.0
2022-10-22T01:03:47.000Z,4427.0
2022-10-22T01:04:47.000Z,4526.0
2022-10-22T01:05:48.000Z,4328.0
2022-10-22T01:06:47.000Z,1121.0
2022-10-22T01:07:48.000Z,495.0
2022-10-22T01:08:47.000Z,643.0
2022-10-22T01:09:47.000Z,1246.0
2022-10-22T01:10:48.000Z,1803.0
2022-10-22T01:11:47.000Z,2406.0
2022-10-22T01:12:48.000Z,2991.0
2022-10-22T01:13:48.000Z,3561.0
2022-10-22T01:14:47.000Z,4301.0
2022-10-22T01:15:48.000Z,3915.0
2022-10-22T01:16:47.000Z,4005.0
2022-10-22T01:17:47.000Z,4025.0
2022-10-22T01:18:48.000Z,3883.0
2022-10-22T01:19:47.000Z,4284.0
2022-10-22T01:20:48.000Z,4196.0
2022-10-22T01:21:47.000Z,4073.0
2022-10-22T01:22:47.000Z,2410.0
2022-10-22T01:23:48.000Z,1937.0
2022-10-22T01:24:47.000Z,1699.0
2022-10-22T01:25:47.000Z,1094.0
2022-10-22T01:26:48.000Z,430.0
2022-10-22T01:27:47.000Z,727.0
2022-10-22T01:28:48.000Z,1112.0
2022-10-22T01:29:47.000Z,1158.0
2022-10-22T01:30:47.000Z,1133.0
2022-10-22T01:31:48.000Z,1487.0
2022-10-22T01:32:47.000Z,1935.0
2022-10-22T01:33:48.000Z,659.0
2022-10-22T01:34:47.000Z,981.0
2022-10-22T01:35:47.000Z,1515.0
2022-10-22T01:36:48.000Z,2071.0
2022-10-22T01:37:47.000Z,1538.0
2022-10-22T01:38:48.000Z,1913.0
2022-10-22T01:39:48.000Z,1671.0
2022-10-22T01:40:47.000Z,2123.0
2022-10-22T01:41:48.000Z,1214.0
2022-10-22T01:42:47.000Z,1443.0
2022-10-22T01:43:47.000Z,1349.0
2022-10-22T01:44:48.000Z,2057.0
2022-10-22T01:45:47.000Z,2780.0
2022-10-22T01:46:47.000Z,3541.0
2022-10-22T01:47:48.000Z,4206.0
2022-10-22T01:48:47.000Z,4424.0
2022-10-22T01:49:48.000Z,3652.0
2022-10-22T01:50:47.000Z,3987.0
2022-10-22T01:51:47.000Z,2982.0
2022-10-22T01:52:48.000Z,2936.0
2022-10-22T01:53:47.000Z,3317.0
2022-10-22T01:54:48.000Z,3724.0
2022-10-22T01:55:47.000Z,4054.0
2022-10-22T01:56:47.000Z,4340.0
2022-10-22T01:57:48.000Z,4699.0
2022-10-22T01:58:47.000Z,4630.0
2022-10-22T01:59:48.000Z,4596.0
2022-10-22T02:00:48.000Z,5112.0
2022-10-22T02:01:47.000Z,5095.0
2022-10-22T02:02:48.000Z,5377.0
2022-10-22T02:03:47.000Z,5092.0
2022-10-22T02:04:47.000Z,4870.0
2022-10-22T02:05:48.000Z,4629.0
2022-10-22T02:06:47.000Z,4600.0
2022-10-22T02:07:48.000Z,4853.0
2022-10-22T02:08:47.000Z,5259.0
2022-10-22T02:09:47.000Z,6529.0
2022-10-22T02:10:48.000Z,7752.0
2022-10-22T02:11:47.000Z,9295.0
2022-10-22T02:12:47.000Z,11200.0
2022-10-22T02:13:48.000Z,13167.0
2022-10-22T02:14:47.000Z,14009.0
2022-10-22T02:15:48.000Z,15032.0
2022-10-22T02:16:47.000Z,15374.0
2022-10-22T02:17:47.000Z,11316.0
2022-10-22T02:18:48.000Z,9155.0
2022-10-22T02:19:47.000Z,7262.0
2022-10-22T02:20:48.000Z,7540.0
2022-10-22T02:21:47.000Z,5964.0
2022-10-22T02:22:47.000Z,5048.0
2022-10-22T02:23:48.000Z,4887.0
2022-10-22T02:24:47.000Z,4553.0
2022-10-22T02:25:47.000Z,4772.0
2022-10-22T02:26:48.000Z,4755.0
2022-10-22T02:27:47.000Z,4153.0
2022-10-22T02:28:48.000Z,4324.0
2022-10-22T02:29:47.000Z,4183.0
2022-10-22T02:30:47.000Z,4445.0
2022-10-22T02:31:48.000Z,4998.0
2022-10-22T02:32:47.000Z,5535.0
2022-10-22T02:33:48.000Z,6699.0
2022-10-22T02:34:47.000Z,7599.0
2022-10-22T02:35:47.000Z,8503.0
2022-10-22T02:36:48.000Z,9183.0
2022-10-22T02:37:47.000Z,8290.0
2022-10-22T02:38:47.000Z,7945.0
2022-10-22T02:39:48.000Z,7595.0
2022-10-22T02:40:47.000Z,6690.0
2022-10-22T02:41:48.000Z,6411.0
2022-10-22T02:42:47.000Z,5781.0
2022-10-22T02:43:47.000Z,5864.0
2022-10-22T02:44:48.000Z,4265.0
2022-10-22T02:45:47.000Z,4529.0
2022-10-22T02:46:47.000Z,5479.0
2022-10-22T02:47:48.000Z,4877.0
2022-10-22T02:48:47.000Z,4978.0
2022-10-22T02:49:48.000Z,5806.0
2022-10-22T02:50:47.000Z,6552.0
2022-10-22T02:51:47.000Z,5835.0
2022-10-22T02:52:48.000Z,5416.0
2022-10-22T02:53:47.000Z,5122.0
2022-10-22T02:54:48.000Z,5472.0
2022-10-22T02:55:47.000Z,5369.0
2022-10-22T02:56:47.000Z,6115.0
2022-10-22T02:57:48.000Z,4848.0
2022-10-22T02:58:47.000Z,4421.0
2022-10-22T02:59:48.000Z,4595.0
2022-10-22T03:00:47.000Z,1509.0
2022-10-22T03:01:47.000Z,726.0
2022-10-22T03:02:48.000Z,856.0
2022-10-22T03:03:47.000Z,1541.0
2022-10-22T03:04:47.000Z,2162.0
2022-10-22T03:05:48.000Z,2782.0
2022-10-22T03:06:47.000Z,3404.0
2022-10-22T03:07:48.000Z,3743.0
2022-10-22T03:08:47.000Z,4281.0
2022-10-22T03:09:47.000Z,4865.0
2022-10-22T03:10:48.000Z,4924.0
2022-10-22T03:11:47.000Z,4859.0
2022-10-22T03:12:47.000Z,5177.0
2022-10-22T03:13:48.000Z,5515.0
2022-10-22T03:14:47.000Z,5280.0
2022-10-22T03:15:48.000Z,5419.0
2022-10-22T03:16:47.000Z,5421.0
2022-10-22T03:17:47.000Z,4854.0
2022-10-22T03:18:48.000Z,4439.0
2022-10-22T03:19:47.000Z,3873.0
2022-10-22T03:20:48.000Z,3792.0
2022-10-22T03:21:47.000Z,3510.0
2022-10-22T03:22:47.000Z,860.0
2022-10-22T03:23:48.000Z,606.0
2022-10-22T03:24:47.000Z,704.0
2022-10-22T03:25:48.000Z,1388.0
2022-10-22T03:26:47.000Z,2088.0
2022-10-22T03:27:47.000Z,2683.0
2022-10-22T03:28:48.000Z,3265.0
2022-10-22T03:29:47.000Z,3606.0
2022-10-22T03:30:47.000Z,3796.0
2022-10-22T03:31:48.000Z,4128.0
2022-10-22T03:32:47.000Z,4663.0
2022-10-22T03:33:48.000Z,5192.0
2022-10-22T03:34:47.000Z,5013.0
2022-10-22T03:35:47.000Z,5253.0
2022-10-22T03:36:48.000Z,5160.0
2022-10-22T03:37:47.000Z,5187.0
2022-10-22T03:38:47.000Z,4941.0
2022-10-22T03:39:48.000Z,4059.0
2022-10-22T03:40:47.000Z,3920.0
2022-10-22T03:41:48.000Z,3942.0
2022-10-22T03:42:47.000Z,4163.0
2022-10-22T03:43:47.000Z,4129.0
2022-10-22T03:44:48.000Z,3734.0
2022-10-22T03:45:47.000Z,3225.0
2022-10-22T03:46:47.000Z,2890.0
2022-10-22T03:47:48.000Z,3423.0
2022-10-22T03:48:47.000Z,3598.0
2022-10-22T03:49:48.000Z,3602.0
2022-10-22T03:50:47.000Z,4069.0
2022-10-22T03:51:47.000Z,3791.0
2022-10-22T03:52:48.000Z,3297.0
2022-10-22T03:53:47.000Z,3384.0
2022-10-22T03:54:48.000Z,3853.0
2022-10-22T03:55:47.000Z,4394.0
2022-10-22T03:56:47.000Z,4788.0
2022-10-22T03:57:48.000Z,4530.0
2022-10-22T03:58:47.000Z,4268.0
2022-10-22T03:59:48.000Z,3681.0
2022-10-22T04:00:47.000Z,4139.0
2022-10-22T04:01:47.000Z,4512.0
2022-10-22T04:02:48.000Z,4502.0
2022-10-22T04:03:47.000Z,4909.0
2022-10-22T04:04:47.000Z,5372.0
2022-10-22T04:05:48.000Z,5482.0
2022-10-22T04:06:47.000Z,5404.0
2022-10-22T04:07:48.000Z,5116.0
2022-10-22T04:08:47.000Z,4681.0
2022-10-22T04:09:47.000Z,4636.0
2022-10-22T04:10:48.000Z,4923.0
2022-10-22T04:11:47.000Z,5215.0
2022-10-22T04:12:48.000Z,5793.0
2022-10-22T04:13:47.000Z,6528.0
2022-10-22T04:14:47.000Z,6427.0
2022-10-22T04:15:48.000Z,5623.0
2022-10-22T04:16:47.000Z,5643.0
2022-10-22T04:17:47.000Z,5893.0
2022-10-22T04:18:48.000Z,6290.0
2022-10-22T04:19:47.000Z,5967.0
2022-10-22T04:20:48.000Z,5630.0
2022-10-22T04:21:47.000Z,5541.0
2022-10-22T04:22:47.000Z,5357.0
2022-10-22T04:23:48.000Z,4031.0
2022-10-22T04:25:48.000Z,3652.0
2022-10-22T04:26:47.000Z,3353.0
2022-10-22T04:27:47.000Z,853.0
2022-10-22T04:28:48.000Z,1425.0
2022-10-22T04:29:47.000Z,2073.0
2022-10-22T04:30:47.000Z,2423.0
2022-10-22T04:31:48.000Z,3010.0
2022-10-22T04:32:47.000Z,3186.0
2022-10-22T04:33:48.000Z,3204.0
2022-10-22T04:34:47.000Z,3217.0
2022-10-22T04:35:47.000Z,3599.0
2022-10-22T04:36:48.000Z,3730.0
2022-10-22T04:37:47.000Z,3269.0
2022-10-22T04:38:47.000Z,1619.0
2022-10-22T04:39:47.000Z,1892.0
2022-10-22T04:40:47.000Z,1296.0
2022-10-22T04:41:48.000Z,781.0
2022-10-22T04:42:47.000Z,1073.0
2022-10-22T04:43:47.000Z,230.0
2022-10-22T04:44:48.000Z,296.0
2022-10-22T04:45:47.000Z,373.0
2022-10-22T04:46:47.000Z,873.0
2022-10-22T04:47:48.000Z,372.0
2022-10-22T04:48:47.000Z,436.0
2022-10-22T04:49:48.000Z,990.0
2022-10-22T04:50:47.000Z,1358.0
2022-10-22T04:51:47.000Z,1918.0
2022-10-22T04:52:48.000Z,2245.0
2022-10-22T04:53:47.000Z,2503.0
2022-10-22T04:54:47.000Z,2593.0
2022-10-22T04:55:48.000Z,2641.0
2022-10-22T04:56:47.000Z,3059.0
2022-10-22T04:57:48.000Z,580.0
2022-10-22T04:58:47.000Z,749.0
2022-10-22T04:59:47.000Z,1116.0
2022-10-22T05:00:48.000Z,1563.0
2022-10-22T05:01:47.000Z,1906.0
2022-10-22T05:02:48.000Z,1775.0
2022-10-22T05:03:47.000Z,379.0
2022-10-22T05:04:47.000Z,331.0
2022-10-22T05:05:48.000Z,297.0
2022-10-22T05:06:47.000Z,208.0
2022-10-22T05:07:47.000Z,234.0
2022-10-22T05:08:48.000Z,204.0
2022-10-22T05:09:47.000Z,160.0
2022-10-22T05:10:48.000Z,187.0
2022-10-22T05:11:47.000Z,145.0
2022-10-22T05:12:47.000Z,241.0
2022-10-22T05:13:48.000Z,316.0
2022-10-22T05:14:47.000Z,231.0
2022-10-22T05:15:47.000Z,237.0
2022-10-22T05:16:47.000Z,216.0
2022-10-22T05:17:47.000Z,248.0
2022-10-22T05:18:48.000Z,231.0
2022-10-22T05:19:47.000Z,311.0
2022-10-22T05:20:47.000Z,634.0
2022-10-22T05:21:48.000Z,763.0
2022-10-22T05:22:47.000Z,1159.0
2022-10-22T05:23:48.000Z,1776.0
2022-10-22T05:24:47.000Z,907.0
2022-10-22T05:25:47.000Z,980.0
2022-10-22T05:26:48.000Z,1619.0
2022-10-22T05:27:47.000Z,2180.0
2022-10-22T05:28:47.000Z,2796.0
2022-10-22T05:29:47.000Z,3054.0
2022-10-22T05:30:47.000Z,3214.0
2022-10-22T05:31:48.000Z,3202.0
2022-10-22T05:32:47.000Z,3183.0
2022-10-22T05:33:47.000Z,3110.0
2022-10-22T05:34:48.000Z,2763.0
2022-10-22T05:35:47.000Z,2448.0
2022-10-22T05:36:48.000Z,2654.0
2022-10-22T05:37:47.000Z,3065.0
2022-10-22T05:38:47.000Z,1235.0
2022-10-22T05:39:48.000Z,1785.0
2022-10-22T05:40:47.000Z,2226.0
2022-10-22T05:41:47.000Z,2548.0
2022-10-22T05:42:48.000Z,2785.0
2022-10-22T05:43:47.000Z,1661.0
2022-10-22T05:44:48.000Z,1145.0
2022-10-22T05:45:47.000Z,1706.0
2022-10-22T05:46:47.000Z,1821.0
2022-10-22T05:47:48.000Z,822.0
2022-10-22T05:48:47.000Z,959.0
2022-10-22T05:49:47.000Z,516.0
2022-10-22T05:50:48.000Z,358.0
2022-10-22T05:51:47.000Z,742.0
2022-10-22T05:52:47.000Z,685.0
2022-10-22T05:53:48.000Z,765.0
2022-10-22T05:54:47.000Z,1087.0
2022-10-22T05:55:48.000Z,1621.0
2022-10-22T05:56:47.000Z,2054.0
2022-10-22T05:57:47.000Z,2296.0
2022-10-22T05:58:48.000Z,2565.0
2022-10-22T05:59:47.000Z,2909.0
2022-10-22T06:00:47.000Z,3132.0
2022-10-22T06:01:47.000Z,2889.0
2022-10-22T06:02:47.000Z,3245.0
2022-10-22T06:03:48.000Z,3218.0
2022-10-22T06:04:47.000Z,2366.0
2022-10-22T06:05:47.000Z,2637.0
2022-10-22T06:06:48.000Z,1783.0
2022-10-22T06:07:47.000Z,2192.0
2022-10-22T06:08:48.000Z,2589.0
2022-10-22T06:09:47.000Z,2628.0
2022-10-22T06:10:47.000Z,3067.0
2022-10-22T06:11:48.000Z,3497.0
2022-10-22T06:12:47.000Z,3997.0
2022-10-22T06:13:48.000Z,4604.0
2022-10-22T06:14:47.000Z,4768.0
2022-10-22T06:15:47.000Z,5388.0
2022-10-22T06:16:48.000Z,5656.0
2022-10-22T06:17:47.000Z,5681.0
2022-10-22T06:18:47.000Z,6175.0
2022-10-22T06:19:48.000Z,5186.0
2022-10-22T06:20:47.000Z,2542.0
2022-10-22T06:21:48.000Z,1739.0
2022-10-22T06:22:47.000Z,2124.0
2022-10-22T06:23:47.000Z,2295.0
2022-10-22T06:24:48.000Z,2719.0
2022-10-22T06:25:47.000Z,2634.0
2022-10-22T06:26:47.000Z,2839.0
2022-10-22T06:27:47.000Z,2698.0
2022-10-22T06:28:47.000Z,1597.0
2022-10-22T06:29:48.000Z,2220.0
2022-10-22T06:30:47.000Z,2825.0
2022-10-22T06:31:47.000Z,3255.0
2022-10-22T06:32:48.000Z,3514.0
2022-10-22T06:33:47.000Z,2285.0
2022-10-22T06:34:48.000Z,2867.0
2022-10-22T06:35:47.000Z,3375.0
2022-10-22T06:36:47.000Z,3458.0
2022-10-22T06:37:48.000Z,4719.0
2022-10-22T06:38:47.000Z,5742.0
2022-10-22T06:39:47.000Z,7206.0
2022-10-22T06:40:47.000Z,9163.0
2022-10-22T06:41:47.000Z,10540.0
2022-10-22T06:42:48.000Z,12757.0
2022-10-22T06:43:47.000Z,14055.0
2022-10-22T06:44:47.000Z,13901.0
2022-10-22T06:45:48.000Z,15030.0
2022-10-22T06:46:47.000Z,16000.0
2022-10-22T06:47:47.000Z,16000.0
2022-10-22T06:48:47.000Z,16000.0
2022-10-22T06:49:47.000Z,16000.0
2022-10-22T06:50:48.000Z,16000.0
2022-10-22T06:51:47.000Z,16000.0
2022-10-22T06:52:47.000Z,16000.0
2022-10-22T06:53:48.000Z,16000.0
2022-10-22T06:54:47.000Z,16000.0
2022-10-22T06:55:48.000Z,16000.0
2022-10-22T06:56:47.000Z,16000.0
2022-10-22T06:57:47.000Z,16000.0
2022-10-22T06:58:48.000Z,16000.0
2022-10-22T06:59:47.000Z,16000.0
2022-10-22T07:00:47.000Z,16000.0
2022-10-22T07:01:47.000Z,16000.0
2022-10-22T07:02:47.000Z,16000.0
2022-10-22T07:03:48.000Z,16000.0
2022-10-22T07:04:47.000Z,16000.0
2022-10-22T07:05:47.000Z,16000.0
2022-10-22T07:06:48.000Z,16000.0
2022-10-22T07:07:47.000Z,16000.0
2022-10-22T07:08:48.000Z,16000.0
2022-10-22T07:09:47.000Z,16000.0
2022-10-22T07:10:47.000Z,16000.0
2022-10-22T07:11:48.000Z,16000.0
2022-10-22T07:12:47.000Z,16000.0
2022-10-22T07:13:47.000Z,16000.0
2022-10-22T07:14:47.000Z,16000.0
2022-10-22T07:15:47.000Z,16000.0
2022-10-22T07:16:48.000Z,16000.0
2022-10-22T07:17:47.000Z,16000.0
2022-10-22T07:18:47.000Z,16000.0
2022-10-22T07:19:48.000Z,16000.0
2022-10-22T07:20:47.000Z,16000.0
2022-10-22T07:21:48.000Z,16000.0
2022-10-22T07:22:47.000Z,16000.0
2022-10-22T07:23:47.000Z,16000.0
2022-10-22T07:24:48.000Z,16000.0
2022-10-22T07:25:47.000Z,16000.0
2022-10-22T07:26:47.000Z,16000.0
2022-10-22T07:27:47.000Z,16000.0
2022-10-22T07:28:47.000Z,16000.0
2022-10-22T07:29:48.000Z,16000.0
2022-10-22T07:30:47.000Z,16000.0
2022-10-22T07:31:47.000Z,16000.0
2022-10-22T07:32:48.000Z,16000.0
2022-10-22T07:33:47.000Z,16000.0
2022-10-22T07:34:48.000Z,16000.0
2022-10-22T07:35:47.000Z,16000.0
2022-10-22T07:36:47.000Z,16000.0
2022-10-22T07:37:48.000Z,16000.0
2022-10-22T07:38:47.000Z,16000.0
2022-10-22T07:39:47.000Z,16000.0
2022-10-22T07:40:47.000Z,16000.0
2022-10-22T07:41:47.000Z,16000.0
2022-10-22T07:42:48.000Z,16000.0
2022-10-22T07:43:47.000Z,16000.0
2022-10-22T07:44:47.000Z,16000.0
2022-10-22T07:45:48.000Z,16000.0
2022-10-22T07:46:47.000Z,16000.0
2022-10-22T07:47:47.000Z,16000.0
2022-10-22T07:48:48.000Z,16000.0
2022-10-22T07:49:47.000Z,16000.0
2022-10-22T07:50:47.000Z,16000.0
2022-10-22T07:51:47.000Z,16000.0
2022-10-22T07:52:47.000Z,16000.0
2022-10-22T07:53:48.000Z,16000.0
2022-10-22T07:54:47.000Z,16000.0
2022-10-22T07:55:47.000Z,16000.0
2022-10-22T07:56:48.000Z,16000.0
2022-10-22T07:57:47.000Z,16000.0
2022-10-22T07:58:48.000Z,16000.0
2022-10-22T07:59:47.000Z,16000.0
2022-10-22T08:00:47.000Z,16000.0
2022-10-22T08:01:48.000Z,16000.0
2022-10-22T08:02:47.000Z,16000.0
2022-10-22T08:03:47.000Z,16000.0
2022-10-22T08:04:47.000Z,16000.0
2022-10-22T08:05:47.000Z,16000.0
2022-10-22T08:06:48.000Z,16000.0
2022-10-22T08:07:47.000Z,16000.0
2022-10-22T08:08:47.000Z,16000.0
2022-10-22T08:09:48.000Z,16000.0
2022-10-22T08:10:47.000Z,16000.0
2022-10-22T08:11:48.000Z,16000.0
2022-10-22T08:12:47.000Z,16000.0
2022-10-22T08:13:47.000Z,16000.0
2022-10-22T08:14:48.000Z,16000.0
2022-10-22T08:15:47.000Z,16000.0
2022-10-22T08:16:47.000Z,16000.0
2022-10-22T08:17:47.000Z,16000.0
2022-10-22T08:18:47.000Z,16000.0
2022-10-22T08:19:48.000Z,16000.0
2022-10-22T08:20:47.000Z,16000.0
2022-10-22T08:21:47.000Z,16000.0
2022-10-22T08:22:48.000Z,16000.0
2022-10-22T08:23:47.000Z,16000.0
2022-10-22T08:24:48.000Z,16000.0
2022-10-22T08:25:47.000Z,16000.0
2022-10-22T08:26:47.000Z,16000.0
2022-10-22T08:27:48.000Z,16000.0
2022-10-22T08:28:47.000Z,16000.0
2022-10-22T08:29:47.000Z,16000.0
2022-10-22T08:30:47.000Z,16000.0
2022-10-22T08:31:47.000Z,16000.0
2022-10-22T08:32:48.000Z,16000.0
2022-10-22T08:33:47.000Z,16000.0
2022-10-22T08:34:47.000Z,16000.0
2022-10-22T08:35:48.000Z,16000.0
2022-10-22T08:36:47.000Z,16000.0
2022-10-22T08:37:47.000Z,16000.0
2022-10-22T08:38:47.000Z,16000.0
2022-10-22T08:39:47.000Z,16000.0
2022-10-22T08:40:48.000Z,16000.0
2022-10-22T08:41:47.000Z,16000.0
2022-10-22T08:42:47.000Z,16000.0
2022-10-22T08:43:48.000Z,16000.0
2022-10-22T08:44:47.000Z,16000.0
2022-10-22T08:45:48.000Z,16000.0
2022-10-22T08:46:47.000Z,16000.0
2022-10-22T08:47:47.000Z,16000.0
2022-10-22T08:48:48.000Z,16000.0
2022-10-22T08:49:47.000Z,16000.0
2022-10-22T08:50:47.000Z,16000.0
2022-10-22T08:51:48.000Z,16000.0
2022-10-22T08:52:47.000Z,16000.0
2022-10-22T08:53:47.000Z,16000.0
2022-10-22T08:54:48.000Z,16000.0
2022-10-22T08:55:47.000Z,16000.0
2022-10-22T08:56:48.000Z,16000.0
2022-10-22T08:57:47.000Z,16000.0
2022-10-22T08:58:47.000Z,16000.0
2022-10-22T08:59:48.000Z,16000.0
2022-10-22T09:00:47.000Z,16000.0
2022-10-22T09:01:48.000Z,16000.0
2022-10-22T09:02:47.000Z,16000.0
2022-10-22T09:03:47.000Z,16000.0
2022-10-22T09:04:48.000Z,16000.0
2022-10-22T09:06:47.000Z,16000.0
2022-10-22T09:07:47.000Z,16000.0
2022-10-22T09:08:47.000Z,16000.0
2022-10-22T09:09:48.000Z,16000.0
2022-10-22T09:10:47.000Z,16000.0
2022-10-22T09:11:47.000Z,16000.0
2022-10-22T09:12:48.000Z,16000.0
2022-10-22T09:13:47.000Z,16000.0
2022-10-22T09:14:47.000Z,16000.0
2022-10-22T09:15:47.000Z,16000.0
2022-10-22T09:16:47.000Z,16000.0
2022-10-22T09:17:48.000Z,16000.0
2022-10-22T09:18:47.000Z,16000.0
2022-10-22T09:19:47.000Z,16000.0
2022-10-22T09:20:48.000Z,16000.0
2022-10-22T09:21:47.000Z,16000.0
2022-10-22T09:22:48.000Z,16000.0
2022-10-22T09:23:47.000Z,16000.0
2022-10-22T09:24:47.000Z,16000.0
2022-10-22T09:25:48.000Z,16000.0
2022-10-22T09:26:47.000Z,16000.0
2022-10-22T09:27:48.000Z,16000.0
2022-10-22T09:28:47.000Z,16000.0
2022-10-22T09:29:47.000Z,16000.0
2022-10-22T09:30:48.000Z,16000.0
2022-10-22T09:31:47.000Z,16000.0
2022-10-22T09:32:47.000Z,16000.0
2022-10-22T09:33:47.000Z,16000.0
2022-10-22T09:34:47.000Z,16000.0
2022-10-22T09:35:48.000Z,16000.0
2022-10-22T09:36:47.000Z,16000.0
2022-10-22T09:37:47.000Z,16000.0
2022-10-22T09:38:48.000Z,16000.0
2022-10-22T09:39:47.000Z,16000.0
2022-10-22T09:40:47.000Z,16000.0
2022-10-22T09:41:47.000Z,16000.0
2022-10-22T09:42:47.000Z,16000.0
2022-10-22T09:43:48.000Z,16000.0
2022-10-22T09:44:47.000Z,16000.0
2022-10-22T09:45:47.000Z,16000.0
2022-10-22T09:46:48.000Z,16000.0
2022-10-22T09:47:47.000Z,16000.0
2022-10-22T09:48:47.000Z,16000.0
2022-10-22T09:49:48.000Z,16000.0
2022-10-22T09:50:47.000Z,16000.0
2022-10-22T09:51:47.000Z,16000.0
2022-10-22T09:52:47.000Z,16000.0
2022-10-22T09:53:47.000Z,16000.0
2022-10-22T09:54:48.000Z,16000.0
2022-10-22T09:55:47.000Z,16000.0
2022-10-22T09:56:47.000Z,16000.0
2022-10-22T09:57:48.000Z,16000.0
2022-10-22T09:58:47.000Z,16000.0
2022-10-22T09:59:48.000Z,16000.0
2022-10-22T10:00:47.000Z,16000.0
2022-10-22T10:01:47.000Z,16000.0
2022-10-22T10:02:48.000Z,16000.0
2022-10-22T10:03:47.000Z,16000.0
2022-10-22T10:04:47.000Z,16000.0
2022-10-22T10:05:47.000Z,16000.0
2022-10-22T10:06:47.000Z,16000.0
2022-10-22T10:07:48.000Z,16000.0
2022-10-22T10:08:47.000Z,16000.0
2022-10-22T10:09:47.000Z,16000.0
2022-10-22T10:10:47.000Z,16000.0
2022-10-22T10:11:47.000Z,16000.0
2022-10-22T10:12:48.000Z,16000.0
2022-10-22T10:13:47.000Z,16000.0
2022-10-22T10:14:47.000Z,16000.0
2022-10-22T10:15:48.000Z,16000.0
2022-10-22T10:16:47.000Z,16000.0
2022-10-22T10:17:47.000Z,16000.0
2022-10-22T10:18:47.000Z,16000.0
2022-10-22T10:19:47.000Z,16000.0
2022-10-22T10:20:48.000Z,16000.0
2022-10-22T10:21:47.000Z,16000.0
2022-10-22T10:22:47.000Z,16000.0
2022-10-22T10:23:48.000Z,16000.0
2022-10-22T10:24:47.000Z,16000.0
2022-10-22T10:25:48.000Z,16000.0
2022-10-22T10:26:47.000Z,16000.0
2022-10-22T10:27:47.000Z,16000.0
2022-10-22T10:28:48.000Z,16000.0
2022-10-22T10:29:47.000Z,16000.0
2022-10-22T10:30:47.000Z,16000.0
2022-10-22T10:31:47.000Z,16000.0
2022-10-22T10:32:47.000Z,16000.0
2022-10-22T10:33:48.000Z,16000.0
2022-10-22T10:34:47.000Z,16000.0
2022-10-22T10:35:47.000Z,16000.0
2022-10-22T10:36:47.000Z,16000.0
2022-10-22T10:37:47.000Z,16000.0
2022-10-22T10:38:48.000Z,16000.0
2022-10-22T10:39:47.000Z,16000.0
2022-10-22T10:40:47.000Z,16000.0
2022-10-22T10:41:48.000Z,16000.0
2022-10-22T10:42:47.000Z,16000.0
2022-10-22T10:43:47.000Z,16000.0
2022-10-22T10:44:47.000Z,16000.0
2022-10-22T10:45:47.000Z,16000.0
2022-10-22T10:46:47.000Z,16000.0
2022-10-22T10:47:47.000Z,16000.0
2022-10-22T10:48:47.000Z,16000.0
2022-10-22T10:49:48.000Z,16000.0
2022-10-22T10:50:47.000Z,16000.0
2022-10-22T10:51:47.000Z,16000.0
2022-10-22T10:52:47.000Z,16000.0
2022-10-22T10:53:47.000Z,16000.0
2022-10-22T10:54:48.000Z,16000.0
2022-10-22T10:55:47.000Z,16000.0
2022-10-22T10:56:47.000Z,16000.0
2022-10-22T10:57:47.000Z,16000.0
2022-10-22T10:58:47.000Z,16000.0
2022-10-22T10:59:48.000Z,16000.0
2022-10-22T11:00:47.000Z,16000.0
2022-10-22T11:01:47.000Z,16000.0
2022-10-22T11:02:48.000Z,16000.0
2022-10-22T11:03:47.000Z,16000.0
2022-10-22T11:04:47.000Z,16000.0
2022-10-22T11:05:47.000Z,16000.0
2022-10-22T11:06:47.000Z,16000.0
2022-10-22T11:07:48.000Z,16000.0
2022-10-22T11:08:47.000Z,16000.0
2022-10-22T11:09:47.000Z,16000.0
2022-10-22T11:10:48.000Z,16000.0
2022-10-22T11:11:47.000Z,16000.0
2022-10-22T11:12:48.000Z,16000.0
2022-10-22T11:13:47.000Z,16000.0
2022-10-22T11:14:47.000Z,16000.0
2022-10-22T11:15:48.000Z,16000.0
2022-10-22T11:16:47.000Z,16000.0
2022-10-22T11:17:47.000Z,16000.0
2022-10-22T11:18:47.000Z,16000.0
2022-10-22T11:19:47.000Z,16000.0
2022-10-22T11:20:48.000Z,16000.0
2022-10-22T11:21:47.000Z,16000.0
2022-10-22T11:22:47.000Z,16000.0
2022-10-22T11:23:47.000Z,16000.0
2022-10-22T11:24:47.000Z,16000.0
2022-10-22T11:25:48.000Z,16000.0
2022-10-22T11:26:47.000Z,16000.0
2022-10-22T11:27:47.000Z,16000.0
2022-10-22T11:28:48.000Z,16000.0
2022-10-22T11:29:47.000Z,16000.0
2022-10-22T11:30:47.000Z,16000.0
2022-10-22T11:31:47.000Z,16000.0
2022-10-22T11:32:47.000Z,16000.0
2022-10-22T11:33:48.000Z,16000.0
2022-10-22T11:34:47.000Z,16000.0
2022-10-22T11:35:47.000Z,16000.0
2022-10-22T11:36:48.000Z,16000.0
2022-10-22T11:37:47.000Z,16000.0
2022-10-22T11:38:48.000Z,16000.0
2022-10-22T11:39:47.000Z,16000.0
2022-10-22T11:40:47.000Z,16000.0
2022-10-22T11:41:48.000Z,16000.0
2022-10-22T11:42:47.000Z,16000.0
2022-10-22T11:43:47.000Z,16000.0
2022-10-22T11:44:47.000Z,16000.0
2022-10-22T11:45:47.000Z,16000.0
2022-10-22T11:46:47.000Z,16000.0
2022-10-22T11:47:47.000Z,16000.0
2022-10-22T11:48:47.000Z,16000.0
2022-10-22T11:49:48.000Z,16000.0
2022-10-22T11:50:47.000Z,16000.0
2022-10-22T11:51:47.000Z,16000.0
2022-10-22T11:52:47.000Z,16000.0
2022-10-22T11:53:47.000Z,16000.0
2022-10-22T11:54:48.000Z,16000.0
2022-10-22T11:55:47.000Z,16000.0
2022-10-22T11:56:47.000Z,16000.0
2022-10-22T11:57:48.000Z,16000.0
2022-10-22T11:58:47.000Z,16000.0
2022-10-22T11:59:48.000Z,16000.0
2022-10-22T12:00:47.000Z,16000.0
2022-10-22T12:01:47.000Z,16000.0
2022-10-22T12:02:48.000Z,16000.0
2022-10-22T12:03:47.000Z,16000.0
2022-10-22T12:04:47.000Z,16000.0
2022-10-22T12:05:47.000Z,16000.0
2022-10-22T12:06:47.000Z,16000.0
2022-10-22T12:07:48.000Z,16000.0
2022-10-22T12:08:47.000Z,16000.0
2022-10-22T12:09:47.000Z,16000.0
2022-10-22T12:10:47.000Z,16000.0
2022-10-22T12:11:47.000Z,16000.0
2022-10-22T12:12:48.000Z,16000.0
2022-10-22T12:13:47.000Z,16000.0
2022-10-22T12:14:47.000Z,16000.0
2022-10-22T12:15:48.000Z,16000.0
2022-10-22T12:16:47.000Z,16000.0
2022-10-22T12:17:47.000Z,16000.0
2022-10-22T12:18:47.000Z,16000.0
2022-10-22T12:19:47.000Z,16000.0
2022-10-22T12:20:48.000Z,16000.0
2022-10-22T12:21:47.000Z,16000.0